Time;durP1;ratioP1;P1;durP2;ratioP2;P2;SDS_P1;SDS_P2;PMS_P1;PMS_P2;Temp;Humidity;BMP_temperature;BMP_pressure;BME280_temperature;BME280_humidity;BME280_pressure;Samples;Min_cycle;Max_cycle;Signal;HPM_P1;HPM_P2
2024/01/17 00:00:49;;;;;;;13.88;7.35;;;;;;;-1.42;77.22;100156.03;5030667;28;20034;-84
2024/01/17 00:03:14;;;;;;;10.40;6.43;;;;;;;-1.37;76.94;100156.03;5015099;28;20056;-84
2024/01/17 00:05:40;;;;;;;13.68;7.53;;;;;;;-1.41;76.88;100143.94;5037852;28;20118;-83
2024/01/17 00:08:05;;;;;;;13.88;7.93;;;;;;;-1.50;76.67;100146.53;5028322;28;20029;-84
2024/01/17 00:10:30;;;;;;;11.95;5.97;;;;;;;-1.50;76.47;100143.97;5032216;28;20563;-84
2024/01/17 00:12:56;;;;;;;13.07;7.05;;;;;;;-1.57;77.14;100140.53;5011911;28;20068;-84
2024/01/17 00:15:22;;;;;;;8.43;6.20;;;;;;;-1.62;77.47;100137.09;5036213;28;20475;-84
2024/01/17 00:17:48;;;;;;;10.98;6.75;;;;;;;-1.65;77.23;100134.50;5017107;28;20491;-84
2024/01/17 00:20:13;;;;;;;10.30;5.45;;;;;;;-1.60;77.06;100128.44;5037109;28;20116;-83
2024/01/17 00:22:38;;;;;;;9.75;7.45;;;;;;;-1.62;76.84;100121.53;5013950;28;20515;-84
2024/01/17 00:25:06;;;;;;;11.10;7.30;;;;;;;-1.61;76.65;100124.13;5028872;28;20021;-83
2024/01/17 00:27:31;;;;;;;13.27;7.43;;;;;;;-1.68;77.55;100116.34;5025243;28;20029;-83
2024/01/17 00:29:59;;;;;;;12.50;6.72;;;;;;;-1.66;76.81;100105.13;5039787;28;20068;-83
2024/01/17 00:32:25;;;;;;;11.30;7.20;;;;;;;-1.65;76.93;100101.66;5023981;28;20507;-83
2024/01/17 00:34:51;;;;;;;13.80;7.28;;;;;;;-1.74;77.61;100099.09;5032104;28;20033;-83
2024/01/17 00:37:16;;;;;;;16.13;7.22;;;;;;;-1.80;77.44;100081.84;5013659;28;20392;-83
2024/01/17 00:39:41;;;;;;;9.65;6.43;;;;;;;-1.72;77.05;100081.84;5029098;28;20053;-82
2024/01/17 00:42:07;;;;;;;13.52;6.97;;;;;;;-1.73;77.03;100079.22;5035507;28;20048;-82
2024/01/17 00:44:33;;;;;;;10.85;7.45;;;;;;;-1.75;77.58;100074.06;5047896;28;20091;-82
2024/01/17 00:46:59;;;;;;;12.20;6.90;;;;;;;-1.78;77.88;100066.28;5035317;28;20033;-82
2024/01/17 00:49:24;;;;;;;17.15;7.55;;;;;;;-1.72;77.55;100062.84;5035143;28;20397;-82
2024/01/17 00:51:49;;;;;;;13.80;7.45;;;;;;;-1.80;77.05;100053.34;5015144;28;20026;-83
2024/01/17 00:54:15;;;;;;;13.07;6.70;;;;;;;-1.78;77.96;100053.31;5038248;28;20018;-82
2024/01/17 00:56:40;;;;;;;13.60;8.30;;;;;;;-1.88;77.10;100044.72;5013186;28;20025;-82
2024/01/17 00:59:05;;;;;;;12.82;7.18;;;;;;;-1.90;77.35;100027.47;5029753;28;20427;-81
2024/01/17 01:01:31;;;;;;;11.40;7.25;;;;;;;-1.83;77.48;100024.84;5032859;28;20038;-81
2024/01/17 01:03:56;;;;;;;12.65;6.60;;;;;;;-1.84;77.45;100030.91;5031112;28;20021;-81
2024/01/17 01:06:21;;;;;;;13.60;6.47;;;;;;;-1.73;77.95;100022.22;5033203;28;20031;-81
2024/01/17 01:08:46;;;;;;;14.40;7.07;;;;;;;-1.80;77.44;100014.47;5031065;28;20013;-81
2024/01/17 01:11:12;;;;;;;12.05;7.00;;;;;;;-1.80;77.10;100018.81;5033106;28;20029;-81
2024/01/17 01:13:37;;;;;;;11.15;7.10;;;;;;;-1.76;77.35;100020.53;5030404;28;20033;-81
2024/01/17 01:16:03;;;;;;;14.68;7.35;;;;;;;-1.77;76.91;100020.50;5013467;28;20041;-81
2024/01/17 01:18:30;;;;;;;8.02;5.95;;;;;;;-1.82;77.25;100016.22;5029346;28;20029;-80
2024/01/17 01:20:57;;;;;;;12.48;6.72;;;;;;;-1.86;77.17;100011.06;5032450;28;20017;-80
2024/01/17 01:23:24;;;;;;;10.82;6.45;;;;;;;-1.87;76.74;100012.75;5031344;28;20025;-80
2024/01/17 01:25:50;;;;;;;10.63;6.90;;;;;;;-1.94;76.25;100012.81;5027616;28;20037;-80
2024/01/17 01:28:16;;;;;;;13.82;6.40;;;;;;;-1.97;76.45;100016.25;5013389;28;20049;-80
2024/01/17 01:30:41;;;;;;;12.80;6.78;;;;;;;-1.97;76.77;100007.63;5015969;28;20523;-80
2024/01/17 01:33:07;;;;;;;14.27;7.10;;;;;;;-1.98;77.12;100011.09;5030901;28;20029;-80
2024/01/17 01:35:33;;;;;;;10.75;6.15;;;;;;;-1.99;77.27;100002.44;5030839;28;20531;-80
2024/01/17 01:37:58;;;;;;;10.40;7.00;;;;;;;-2.00;76.96;100015.41;5029709;28;20033;-80
2024/01/17 01:40:23;;;;;;;8.63;5.85;;;;;;;-2.04;77.44;100013.69;5017989;28;20030;-80
2024/01/17 01:42:49;;;;;;;15.25;8.40;;;;;;;-2.13;77.52;100015.44;5031573;28;20061;-80
2024/01/17 01:45:14;;;;;;;12.00;7.85;;;;;;;-2.20;77.77;100005.94;5010844;28;20018;-79
2024/01/17 01:47:40;;;;;;;14.88;7.80;;;;;;;-2.22;77.77;100004.22;5011576;28;20504;-79
2024/01/17 01:50:06;;;;;;;11.95;7.15;;;;;;;-2.24;78.11;99996.44;5033007;28;20033;-79
2024/01/17 01:52:34;;;;;;;14.40;6.93;;;;;;;-2.22;78.21;100002.50;5012050;28;20033;-79
2024/01/17 01:55:01;;;;;;;13.55;7.90;;;;;;;-2.22;78.12;100007.69;5031218;28;20121;-81
2024/01/17 01:57:28;;;;;;;10.20;6.75;;;;;;;-2.26;77.94;99999.91;5031168;28;20049;-81
2024/01/17 01:59:55;;;;;;;14.20;7.50;;;;;;;-2.33;78.30;99997.34;5028804;28;20025;-81
2024/01/17 02:02:21;;;;;;;12.70;7.22;;;;;;;-2.26;78.30;99999.91;5024751;28;20022;-81
2024/01/17 02:04:46;;;;;;;12.95;7.57;;;;;;;-2.25;78.06;99980.94;5031454;28;20373;-81
2024/01/17 02:07:14;;;;;;;11.75;7.22;;;;;;;-2.20;78.78;99987.81;5030178;28;20500;-81
2024/01/17 02:09:40;;;;;;;16.50;8.07;;;;;;;-2.10;78.55;99983.47;5032438;28;20032;-81
2024/01/17 02:12:07;;;;;;;13.27;7.72;;;;;;;-2.15;77.94;99980.91;5013810;28;20420;-81
2024/01/17 02:14:33;;;;;;;15.90;7.05;;;;;;;-2.24;78.09;99970.56;5028712;28;20025;-81
2024/01/17 02:16:58;;;;;;;12.40;7.97;;;;;;;-2.28;77.78;99974.03;5030970;28;20484;-81
2024/01/17 02:19:26;;;;;;;13.77;7.45;;;;;;;-2.41;78.26;99962.00;5030814;28;20092;-81
2024/01/17 02:21:51;;;;;;;14.02;7.45;;;;;;;-2.43;78.77;99969.72;5034165;28;20033;-81
2024/01/17 02:24:23;;;;;;;18.10;8.77;;;;;;;-2.54;78.52;99958.56;5030656;28;20082;-81
2024/01/17 02:26:49;;;;;;;12.20;7.20;;;;;;;-2.61;78.37;99955.13;5033366;28;20091;-81
2024/01/17 02:29:15;;;;;;;11.95;6.97;;;;;;;-2.54;78.58;99955.09;5030912;28;20037;-81
2024/01/17 02:31:41;;;;;;;12.45;7.13;;;;;;;-2.48;78.70;99947.31;5012967;28;20053;-82
2024/01/17 02:34:06;;;;;;;14.77;8.18;;;;;;;-2.46;78.50;99938.72;5031665;28;20064;-81
2024/01/17 02:36:32;;;;;;;12.95;7.45;;;;;;;-2.42;79.14;99924.03;5013901;28;20025;-82
2024/01/17 02:38:57;;;;;;;13.00;7.30;;;;;;;-2.33;78.90;99919.69;5027786;28;20075;-81
2024/01/17 02:41:22;;;;;;;15.90;8.50;;;;;;;-2.35;79.12;99917.97;5035073;28;20369;-82
2024/01/17 02:43:48;;;;;;;12.60;6.82;;;;;;;-2.38;78.61;99910.19;5028431;28;20404;-81
2024/01/17 02:46:13;;;;;;;15.07;8.02;;;;;;;-2.44;78.50;99902.47;5030884;28;20084;-82
2024/01/17 02:48:38;;;;;;;13.95;7.45;;;;;;;-2.52;78.52;99899.88;5030131;28;20032;-81
2024/01/17 02:51:04;;;;;;;18.35;7.18;;;;;;;-2.53;78.96;99899.91;5023373;28;20103;-82
2024/01/17 02:53:29;;;;;;;13.07;6.85;;;;;;;-2.51;79.28;99887.84;5018015;28;20454;-82
2024/01/17 02:55:55;;;;;;;9.70;7.10;;;;;;;-2.41;80.23;99898.16;5032976;28;20222;-81
2024/01/17 02:58:20;;;;;;;10.48;7.28;;;;;;;-2.35;79.39;99895.53;5011590;28;20026;-81
2024/01/17 03:00:45;;;;;;;10.38;7.22;;;;;;;-2.30;79.58;99890.34;5032360;28;20031;-82
2024/01/17 03:03:11;;;;;;;16.45;7.40;;;;;;;-2.21;79.56;99885.13;5030920;28;20025;-82
2024/01/17 03:05:37;;;;;;;11.90;7.70;;;;;;;-2.18;79.42;99874.78;5029828;28;20414;-82
2024/01/17 03:08:04;;;;;;;11.75;7.32;;;;;;;-2.18;79.63;99872.19;5032659;28;20033;-82
2024/01/17 03:10:30;;;;;;;12.95;6.50;;;;;;;-2.24;78.81;99872.19;5030331;28;20040;-83
2024/01/17 03:12:56;;;;;;;12.02;6.88;;;;;;;-2.34;78.99;99865.31;5030156;28;20556;-81
2024/01/17 03:15:22;;;;;;;15.73;6.65;;;;;;;-2.29;79.43;99868.75;5029925;28;20059;-82
2024/01/17 03:17:47;;;;;;;11.82;5.60;;;;;;;-2.27;78.71;99871.34;5031448;28;20044;-82
2024/01/17 03:20:12;;;;;;;9.88;6.82;;;;;;;-2.33;78.45;99867.06;5028510;28;20029;-82
2024/01/17 03:22:39;;;;;;;11.90;6.53;;;;;;;-2.28;78.79;99867.91;5028936;28;20112;-82
2024/01/17 03:25:05;;;;;;;12.18;6.57;;;;;;;-2.25;78.85;99860.13;5025629;28;20076;-81
2024/01/17 03:27:31;;;;;;;14.98;8.10;;;;;;;-2.33;78.21;99857.56;5030231;28;20036;-79
2024/01/17 03:29:56;;;;;;;12.70;6.95;;;;;;;-2.29;79.35;99849.78;5027312;28;20024;-79
2024/01/17 03:32:21;;;;;;;17.23;7.53;;;;;;;-2.34;78.38;99850.66;5027015;28;20549;-79
2024/01/17 03:34:47;;;;;;;12.38;6.55;;;;;;;-2.42;79.24;99831.72;5034495;28;20104;-79
2024/01/17 03:37:12;;;;;;;9.85;6.68;;;;;;;-2.35;78.98;99823.06;5025868;28;20037;-79
2024/01/17 03:39:43;;;;;;;10.70;7.28;;;;;;;-2.44;78.48;99825.69;5029046;28;20057;-79
2024/01/17 03:42:14;;;;;;;11.90;6.55;;;;;;;-2.53;78.47;99811.91;5031900;28;20048;-78
2024/01/17 03:44:39;;;;;;;12.45;6.75;;;;;;;-2.61;78.59;99804.22;5030244;28;20032;-78
2024/01/17 03:47:05;;;;;;;14.93;6.93;;;;;;;-2.73;79.01;99794.75;5010057;28;20025;-78
2024/01/17 03:49:30;;;;;;;13.70;7.35;;;;;;;-2.72;79.08;99793.88;5027539;28;20030;-78
2024/01/17 03:51:55;;;;;;;12.93;6.40;;;;;;;-2.71;79.27;99777.47;5027013;28;20029;-78
2024/01/17 03:54:21;;;;;;;10.05;6.32;;;;;;;-2.73;79.07;99775.78;5026316;28;20503;-78
2024/01/17 03:56:46;;;;;;;11.00;6.50;;;;;;;-2.67;80.11;99765.41;5027966;28;20075;-78
2024/01/17 03:59:11;;;;;;;14.15;7.05;;;;;;;-2.57;79.76;99760.16;5027880;28;20449;-78
2024/01/17 04:01:44;;;;;;;10.82;7.18;;;;;;;-2.50;80.00;99770.50;5030152;28;20500;-78
2024/01/17 04:04:13;;;;;;;13.93;6.85;;;;;;;-2.53;79.54;99750.69;5029317;28;20151;-78
2024/01/17 04:06:39;;;;;;;14.15;7.28;;;;;;;-2.49;79.70;99752.38;5028510;28;20043;-78
2024/01/17 04:09:05;;;;;;;10.93;6.55;;;;;;;-2.46;79.51;99743.75;5023679;28;20022;-78
2024/01/17 04:11:30;;;;;;;14.45;7.75;;;;;;;-2.41;79.64;99744.59;5027246;28;20025;-78
2024/01/17 04:13:55;;;;;;;11.05;7.38;;;;;;;-2.37;79.50;99728.19;5013250;28;20473;-78
2024/01/17 04:16:21;;;;;;;14.10;6.63;;;;;;;-2.42;79.05;99717.84;5009907;28;20128;-78
2024/01/17 04:18:46;;;;;;;12.40;7.03;;;;;;;-2.35;79.26;99713.50;5033321;28;20408;-78
2024/01/17 04:21:20;;;;;;;11.40;6.80;;;;;;;-2.34;79.60;99707.44;5017384;28;20116;-78
2024/01/17 04:23:47;;;;;;;14.98;8.07;;;;;;;-2.32;78.93;99691.03;5033432;28;20067;-78
2024/01/17 04:26:24;;;;;;;16.13;6.80;;;;;;;-2.39;78.84;99681.59;5032593;28;20037;-80
2024/01/17 04:28:50;;;;;;;8.98;6.30;;;;;;;-2.39;79.22;99673.81;5027899;28;20116;-80
2024/01/17 04:31:24;;;;;;;18.95;7.47;;;;;;;-2.39;79.41;99679.00;5026969;28;20124;-80
2024/01/17 04:33:50;;;;;;;10.63;6.25;;;;;;;-2.37;79.48;99679.88;5042567;28;20029;-80
2024/01/17 04:36:16;;;;;;;12.13;7.20;;;;;;;-2.39;79.30;99665.19;5037392;28;20037;-79
2024/01/17 04:38:42;;;;;;;10.82;6.50;;;;;;;-2.37;79.06;99661.75;5032162;28;20112;-78
2024/01/17 04:41:08;;;;;;;13.02;6.80;;;;;;;-2.42;78.89;99652.31;5012765;28;20063;-78
2024/01/17 04:43:34;;;;;;;13.48;7.65;;;;;;;-2.47;79.78;99636.81;5013390;28;20024;-78
2024/01/17 04:46:00;;;;;;;12.57;6.28;;;;;;;-2.47;78.90;99639.41;5031904;28;20033;-78
2024/01/17 04:48:26;;;;;;;12.13;7.20;;;;;;;-2.65;78.59;99637.78;5029410;28;20044;-78
2024/01/17 04:50:52;;;;;;;15.68;7.93;;;;;;;-2.75;78.96;99637.81;5031102;28;20103;-78
2024/01/17 04:53:18;;;;;;;11.20;7.50;;;;;;;-2.78;79.06;99636.13;5029485;28;20029;-78
2024/01/17 04:55:43;;;;;;;17.80;7.78;;;;;;;-2.79;79.17;99641.31;5015502;28;20025;-78
2024/01/17 04:58:08;;;;;;;15.18;6.47;;;;;;;-2.83;79.31;99624.97;5028303;28;20112;-78
2024/01/17 05:00:34;;;;;;;14.73;7.95;;;;;;;-2.83;79.98;99628.41;5023585;28;20031;-78
2024/01/17 05:02:59;;;;;;;16.00;7.13;;;;;;;-2.71;79.68;99624.88;5013218;28;20029;-78
2024/01/17 05:05:24;;;;;;;12.35;7.00;;;;;;;-2.71;79.62;99608.50;5038997;28;20049;-78
2024/01/17 05:07:49;;;;;;;11.95;6.90;;;;;;;-2.65;79.77;99611.91;5013800;28;20556;-78
2024/01/17 05:10:15;;;;;;;11.88;6.65;;;;;;;-2.67;79.93;99615.38;5034365;28;20075;-78
2024/01/17 05:12:40;;;;;;;12.50;7.35;;;;;;;-2.65;80.05;99606.75;5033282;28;20060;-78
2024/01/17 05:15:06;;;;;;;11.68;6.28;;;;;;;-2.63;79.62;99594.63;5016335;28;20033;-78
2024/01/17 05:17:31;;;;;;;12.60;7.38;;;;;;;-2.60;80.09;99593.78;5033333;28;20188;-78
2024/01/17 05:19:56;;;;;;;14.77;7.35;;;;;;;-2.52;79.92;99588.53;5019039;28;20021;-78
2024/01/17 05:22:22;;;;;;;16.58;7.22;;;;;;;-2.51;79.64;99580.78;5031639;28;20036;-78
2024/01/17 05:24:47;;;;;;;12.15;6.68;;;;;;;-2.45;79.78;99577.28;5032237;28;20124;-78
2024/01/17 05:27:12;;;;;;;11.35;6.57;;;;;;;-2.46;79.85;99581.59;5023977;28;20108;-79
2024/01/17 05:29:43;;;;;;;12.75;7.22;;;;;;;-2.43;79.20;99580.69;5025985;28;21283;-79
2024/01/17 05:32:09;;;;;;;14.45;6.32;;;;;;;-2.45;79.19;99580.72;5031202;28;20034;-79
2024/01/17 05:34:34;;;;;;;16.05;7.78;;;;;;;-2.48;79.32;99569.53;5026376;28;20022;-79
2024/01/17 05:36:59;;;;;;;12.40;7.47;;;;;;;-2.44;79.70;99561.72;5032309;28;20489;-82
2024/01/17 05:39:25;;;;;;;14.15;7.38;;;;;;;-2.44;78.94;99556.53;5026407;28;20120;-82
2024/01/17 05:41:50;;;;;;;14.02;7.68;;;;;;;-2.49;78.66;99549.69;5015578;28;20476;-82
2024/01/17 05:44:15;;;;;;;10.85;6.50;;;;;;;-2.58;78.78;99545.44;5021057;28;20025;-82
2024/01/17 05:46:41;;;;;;;11.30;6.60;;;;;;;-2.68;79.19;99542.06;5031589;28;20060;-81
2024/01/17 05:49:06;;;;;;;13.60;7.80;;;;;;;-2.74;79.69;99544.72;5028321;28;20055;-81
2024/01/17 05:51:31;;;;;;;14.35;7.35;;;;;;;-2.74;79.78;99536.09;5029746;28;20041;-81
2024/01/17 05:53:58;;;;;;;13.90;7.97;;;;;;;-2.74;79.58;99529.19;5011953;28;20834;-82
2024/01/17 05:56:23;;;;;;;12.65;7.32;;;;;;;-2.77;79.56;99523.19;5030294;28;20029;-79
2024/01/17 05:58:49;;;;;;;13.27;7.53;;;;;;;-2.84;79.49;99520.66;5025082;28;20152;-78
2024/01/17 06:01:14;;;;;;;11.77;7.15;;;;;;;-2.83;79.31;99526.69;5028406;28;20026;-78
2024/01/17 06:03:40;;;;;;;14.07;7.05;;;;;;;-2.85;79.73;99525.81;5031950;28;20049;-78
2024/01/17 06:06:06;;;;;;;12.38;7.35;;;;;;;-2.90;79.34;99519.81;5029931;28;20040;-78
2024/01/17 06:08:31;;;;;;;9.65;6.55;;;;;;;-2.90;79.44;99519.81;5030879;28;20400;-78
2024/01/17 06:10:56;;;;;;;11.85;7.50;;;;;;;-2.90;79.63;99517.22;5023970;28;20026;-78
2024/01/17 06:13:22;;;;;;;15.32;7.97;;;;;;;-2.90;79.85;99501.72;5011702;28;20169;-77
2024/01/17 06:15:47;;;;;;;16.02;7.50;;;;;;;-2.91;80.51;99505.19;5009963;28;20132;-77
2024/01/17 06:18:13;;;;;;;14.88;7.25;;;;;;;-2.96;80.17;99496.59;5029959;28;20029;-78
2024/01/17 06:20:38;;;;;;;16.55;8.25;;;;;;;-2.92;80.47;99503.47;5010448;28;20358;-77
2024/01/17 06:23:03;;;;;;;14.52;7.65;;;;;;;-2.89;80.43;99498.25;5024775;28;20044;-77
2024/01/17 06:25:28;;;;;;;13.00;7.88;;;;;;;-2.84;80.28;99497.38;5011826;28;20420;-77
2024/01/17 06:27:54;;;;;;;10.63;7.53;;;;;;;-2.80;80.01;99492.16;5006344;28;20042;-78
2024/01/17 06:30:19;;;;;;;10.25;6.90;;;;;;;-2.81;80.19;99491.31;4988597;28;20036;-77
2024/01/17 06:32:45;;;;;;;11.05;7.25;;;;;;;-2.77;80.08;99481.81;4986609;28;20560;-77
2024/01/17 06:35:10;;;;;;;14.02;8.05;;;;;;;-2.79;80.03;99487.00;4988350;28;20033;-77
2024/01/17 06:37:36;;;;;;;14.38;7.43;;;;;;;-2.80;79.95;99468.88;4987715;28;20450;-77
2024/01/17 06:40:01;;;;;;;11.70;7.43;;;;;;;-2.74;80.35;99474.88;4987035;28;20035;-77
2024/01/17 06:42:26;;;;;;;15.32;7.65;;;;;;;-2.68;80.54;99472.25;4988923;28;20033;-76
2024/01/17 06:44:52;;;;;;;15.65;7.63;;;;;;;-2.64;80.76;99470.50;4984053;28;20105;-77
2024/01/17 06:47:17;;;;;;;12.80;7.50;;;;;;;-2.65;79.96;99461.88;4984214;28;20168;-76
2024/01/17 06:49:42;;;;;;;11.15;7.75;;;;;;;-2.68;80.19;99458.44;4989565;28;20026;-76
2024/01/17 06:52:08;;;;;;;10.35;7.38;;;;;;;-2.64;80.69;99466.16;4982753;28;20390;-76
2024/01/17 06:54:33;;;;;;;13.20;7.38;;;;;;;-2.60;80.33;99459.25;4980938;28;20026;-76
2024/01/17 06:56:58;;;;;;;11.07;7.68;;;;;;;-2.67;79.71;99458.44;4988265;28;20030;-76
2024/01/17 06:59:23;;;;;;;14.13;5.97;;;;;;;-2.54;79.27;99455.75;4987077;28;20034;-76
2024/01/17 07:01:49;;;;;;;12.05;7.10;;;;;;;-2.55;80.07;99451.44;4988388;28;20812;-76
2024/01/17 07:04:14;;;;;;;11.35;6.35;;;;;;;-2.56;80.27;99445.41;4987882;28;20434;-76
2024/01/17 07:06:39;;;;;;;12.80;7.32;;;;;;;-2.56;79.12;99437.66;4987089;28;20038;-75
2024/01/17 07:09:05;;;;;;;12.63;7.45;;;;;;;-2.54;79.48;99432.44;4987479;28;20022;-76
2024/01/17 07:11:32;;;;;;;12.65;7.25;;;;;;;-2.52;80.06;99423.78;4984347;28;20038;-75
2024/01/17 07:13:58;;;;;;;13.60;7.93;;;;;;;-2.46;80.11;99422.91;4986728;28;20501;-76
2024/01/17 07:16:24;;;;;;;14.05;7.43;;;;;;;-2.35;80.92;99423.63;4988093;28;20029;-76
2024/01/17 07:18:49;;;;;;;16.75;7.15;;;;;;;-2.29;80.08;99422.69;4986613;28;20446;-75
2024/01/17 07:21:15;;;;;;;14.88;7.57;;;;;;;-2.30;80.10;99414.06;4984841;28;20022;-76
2024/01/17 07:23:43;;;;;;;11.13;7.35;;;;;;;-2.25;80.11;99407.13;4987534;28;20101;-75
2024/01/17 07:26:08;;;;;;;12.88;7.10;;;;;;;-2.19;79.98;99401.00;4985981;28;20105;-75
2024/01/17 07:28:34;;;;;;;13.70;8.00;;;;;;;-2.16;79.16;99390.63;5007461;28;20041;-75
2024/01/17 07:30:59;;;;;;;11.13;7.72;;;;;;;-2.19;79.09;99381.19;5029476;28;20021;-75
2024/01/17 07:33:25;;;;;;;12.07;7.07;;;;;;;-2.19;78.67;99378.59;5033536;28;20571;-75
2024/01/17 07:35:50;;;;;;;12.45;6.72;;;;;;;-2.19;78.58;99370.81;5031286;28;20021;-75
2024/01/17 07:38:15;;;;;;;12.15;7.15;;;;;;;-2.22;78.94;99360.50;5026870;28;20428;-75
2024/01/17 07:40:41;;;;;;;12.88;7.90;;;;;;;-2.20;78.93;99363.06;5030058;28;20121;-75
2024/01/17 07:43:07;;;;;;;11.98;7.00;;;;;;;-2.22;79.29;99363.09;5011013;28;20028;-75
2024/01/17 07:45:32;;;;;;;12.52;7.53;;;;;;;-2.19;79.48;99354.41;5008194;28;20080;-75
2024/01/17 07:47:57;;;;;;;17.10;8.05;;;;;;;-2.17;79.14;99350.09;5026399;28;20030;-75
2024/01/17 07:50:23;;;;;;;12.85;6.80;;;;;;;-2.20;79.10;99339.75;5029583;28;20061;-75
2024/01/17 07:52:48;;;;;;;13.98;6.93;;;;;;;-2.20;78.63;99335.44;5031740;28;20500;-76
2024/01/17 07:55:15;;;;;;;11.80;6.35;;;;;;;-2.16;78.87;99336.25;5015173;28;20022;-75
2024/01/17 07:57:40;;;;;;;13.35;7.20;;;;;;;-2.21;78.24;99327.69;5030726;28;20036;-74
2024/01/17 08:00:06;;;;;;;13.13;7.82;;;;;;;-2.21;78.24;99330.28;5014898;28;20378;-75
2024/01/17 08:02:32;;;;;;;10.80;6.97;;;;;;;-2.21;77.98;99323.38;5051453;28;20021;-75
2024/01/17 08:04:57;;;;;;;15.10;7.75;;;;;;;-2.27;77.73;99317.44;5031404;28;20381;-75
2024/01/17 08:07:24;;;;;;;12.45;6.75;;;;;;;-2.30;78.01;99305.38;5013277;28;20116;-75
2024/01/17 08:09:54;;;;;;;15.63;7.43;;;;;;;-2.23;78.77;99312.19;5037116;28;20021;-75
2024/01/17 08:12:19;;;;;;;11.43;6.07;;;;;;;-2.17;78.80;99299.16;5032215;28;20021;-75
2024/01/17 08:14:45;;;;;;;15.05;7.15;;;;;;;-2.10;78.43;99302.50;5031104;28;20036;-74
2024/01/17 08:17:11;;;;;;;13.45;7.15;;;;;;;-2.06;78.27;99315.38;5034741;28;20024;-74
2024/01/17 08:19:37;;;;;;;9.88;5.22;;;;;;;-2.08;77.40;99304.22;5012269;28;20035;-75
2024/01/17 08:22:04;;;;;;;13.98;7.35;;;;;;;-2.10;77.47;99299.91;5015563;28;20026;-74
2024/01/17 08:24:29;;;;;;;11.35;6.97;;;;;;;-2.15;77.80;99294.81;5031099;28;20502;-75
2024/01/17 08:26:54;;;;;;;10.80;6.43;;;;;;;-2.06;78.75;99296.41;5031862;28;20035;-75
2024/01/17 08:29:19;;;;;;;12.52;6.68;;;;;;;-2.04;77.81;99296.41;5009551;28;20049;-75
2024/01/17 08:31:45;;;;;;;14.50;7.43;;;;;;;-1.99;77.65;99295.47;5011602;28;20362;-74
2024/01/17 08:34:11;;;;;;;15.32;8.15;;;;;;;-1.92;77.88;99281.53;5010913;28;20436;-75
2024/01/17 08:36:37;;;;;;;12.18;8.13;;;;;;;-1.81;78.16;99286.56;5009267;28;20112;-74
2024/01/17 08:39:05;;;;;;;14.98;7.28;;;;;;;-1.78;77.76;99270.97;5014250;28;20038;-74
2024/01/17 08:41:30;;;;;;;14.32;8.07;;;;;;;-1.68;77.65;99275.16;5011881;28;20025;-74
2024/01/17 08:43:55;;;;;;;18.85;8.20;;;;;;;-1.64;77.57;99262.97;5033541;28;20029;-75
2024/01/17 08:46:21;;;;;;;17.85;8.80;;;;;;;-1.49;78.07;99267.94;5011828;28;20025;-75
2024/01/17 08:48:46;;;;;;;15.10;8.40;;;;;;;-1.36;78.18;99264.22;5034182;28;20032;-75
2024/01/17 08:51:11;;;;;;;14.43;8.50;;;;;;;-1.31;77.44;99267.63;5033572;28;20017;-75
2024/01/17 08:53:38;;;;;;;19.08;9.20;;;;;;;-1.27;76.40;99254.59;5031962;28;20022;-75
2024/01/17 08:56:05;;;;;;;21.10;9.32;;;;;;;-1.37;76.00;99246.97;5015342;28;20076;-75
2024/01/17 08:58:34;;;;;;;14.18;8.10;;;;;;;-1.43;75.48;99244.50;5011563;28;20049;-72
2024/01/17 09:00:59;;;;;;;18.70;8.38;;;;;;;-1.48;76.02;99235.94;5030704;28;20026;-74
2024/01/17 09:03:24;;;;;;;17.88;8.93;;;;;;;-1.45;76.80;99219.47;5033264;28;20025;-74
2024/01/17 09:05:50;;;;;;;15.52;8.30;;;;;;;-1.37;77.04;99222.78;5030152;28;20199;-75
2024/01/17 09:08:16;;;;;;;14.18;7.40;;;;;;;-1.29;76.76;99228.69;5024140;28;20037;-75
2024/01/17 09:10:41;;;;;;;17.30;8.68;;;;;;;-1.18;76.34;99221.56;5031998;28;20025;-77
2024/01/17 09:13:07;;;;;;;18.63;9.32;;;;;;;-1.11;76.10;99223.19;5012368;28;20379;-77
2024/01/17 09:15:32;;;;;;;17.50;9.27;;;;;;;-1.04;75.58;99214.38;5027797;28;20028;-77
2024/01/17 09:17:57;;;;;;;17.08;8.98;;;;;;;-0.94;75.62;99209.00;5031818;28;20118;-77
2024/01/17 09:20:24;;;;;;;13.55;8.23;;;;;;;-0.85;76.07;99214.88;5009275;28;20105;-77
2024/01/17 09:22:49;;;;;;;16.58;8.55;;;;;;;-0.71;76.29;99216.34;5015045;28;20037;-77
2024/01/17 09:25:14;;;;;;;16.08;9.38;;;;;;;-0.64;76.13;99205.81;5031272;28;20037;-77
2024/01/17 09:27:40;;;;;;;20.63;10.43;;;;;;;-0.57;74.82;99196.13;5015180;28;20037;-77
2024/01/17 09:30:08;;;;;;;15.57;9.02;;;;;;;-0.49;74.89;99201.16;5032868;28;20441;-77
2024/01/17 09:32:33;;;;;;;16.95;8.85;;;;;;;-0.50;74.89;99197.72;5033405;28;20053;-77
2024/01/17 09:35:00;;;;;;;17.38;9.45;;;;;;;-0.44;74.98;99192.38;5012861;28;20053;-77
2024/01/17 09:37:27;;;;;;;17.63;9.60;;;;;;;-0.43;74.19;99182.84;5030528;28;20021;-75
2024/01/17 09:39:52;;;;;;;18.80;8.65;;;;;;;-0.51;75.03;99175.25;5019736;28;20057;-77
2024/01/17 09:42:20;;;;;;;15.35;9.82;;;;;;;-0.43;75.56;99188.91;5014277;28;20049;-76
2024/01/17 09:44:47;;;;;;;16.00;10.00;;;;;;;-0.33;75.63;99195.63;5035993;28;20471;-75
2024/01/17 09:47:17;;;;;;;16.13;8.95;;;;;;;-0.32;74.96;99194.72;5032219;28;20026;-77
2024/01/17 09:49:42;;;;;;;16.60;10.20;;;;;;;-0.43;73.47;99181.13;5029091;28;20014;-77
2024/01/17 09:52:10;;;;;;;15.68;10.23;;;;;;;-0.50;74.01;99182.16;5034506;28;20037;-77
2024/01/17 09:54:42;;;;;;;17.55;9.65;;;;;;;-0.50;74.23;99186.50;5034100;28;20476;-78
2024/01/17 09:57:13;;;;;;;16.13;9.55;;;;;;;-0.43;74.81;99185.44;5034123;28;20048;-77
2024/01/17 09:59:48;;;;;;;17.25;10.25;;;;;;;-0.35;73.80;99180.94;5029176;28;20511;-77
2024/01/17 10:02:15;;;;;;;18.23;10.27;;;;;;;-0.30;73.76;99173.91;5020156;28;20025;-77
2024/01/17 10:04:41;;;;;;;16.38;10.43;;;;;;;-0.35;73.40;99167.97;5012827;28;20029;-77
2024/01/17 10:07:07;;;;;;;17.13;10.32;;;;;;;-0.32;72.61;99168.75;5032553;28;20029;-77
2024/01/17 10:09:33;;;;;;;18.92;11.07;;;;;;;-0.32;72.27;99158.38;5010502;28;20027;-77
2024/01/17 10:11:59;;;;;;;21.00;11.27;;;;;;;-0.21;73.62;99158.13;5030361;28;20411;-77
2024/01/17 10:14:25;;;;;;;21.88;11.25;;;;;;;-0.12;73.01;99160.50;5025426;28;20045;-77
2024/01/17 10:16:50;;;;;;;17.38;10.48;;;;;;;-0.01;73.23;99153.28;5035232;28;20059;-78
2024/01/17 10:19:18;;;;;;;19.60;11.23;;;;;;;0.08;73.65;99159.16;5033167;28;20072;-75
2024/01/17 10:21:44;;;;;;;18.30;11.05;;;;;;;0.18;73.08;99158.03;5016709;28;20031;-75
2024/01/17 10:24:10;;;;;;;22.20;11.23;;;;;;;0.21;73.91;99148.41;5030457;28;20029;-75
2024/01/17 10:26:40;;;;;;;21.50;10.93;;;;;;;0.27;73.15;99149.16;5012086;28;20512;-75
2024/01/17 10:29:06;;;;;;;14.68;9.32;;;;;;;0.22;72.44;99131.94;5031075;28;20049;-75
2024/01/17 10:31:31;;;;;;;18.33;10.07;;;;;;;0.24;72.95;99139.69;5030413;28;20378;-75
2024/01/17 10:33:57;;;;;;;24.52;9.25;;;;;;;0.15;72.32;99132.13;5012219;28;20449;-75
2024/01/17 10:36:22;;;;;;;15.60;8.98;;;;;;;0.09;72.48;99132.28;5012161;28;20037;-76
2024/01/17 10:38:49;;;;;;;16.27;8.80;;;;;;;0.16;73.26;99139.03;5029348;28;20122;-76
2024/01/17 10:41:14;;;;;;;20.35;8.98;;;;;;;0.19;72.69;99131.19;5012696;28;20048;-76
2024/01/17 10:43:53;;;;;;;18.95;9.07;;;;;;;0.23;72.17;99123.25;5034219;28;20037;-75
2024/01/17 10:46:18;;;;;;;15.15;8.10;;;;;;;0.12;71.38;99121.81;5025981;28;20586;-76
2024/01/17 10:48:43;;;;;;;16.90;8.63;;;;;;;0.09;72.52;99114.94;5029855;28;20025;-76
2024/01/17 10:51:14;;;;;;;10.93;7.63;;;;;;;0.10;71.34;99115.81;5026499;28;20032;-76
2024/01/17 10:53:40;;;;;;;16.50;8.05;;;;;;;0.15;72.25;99111.34;5012563;28;20506;-76
2024/01/17 10:56:07;;;;;;;17.25;7.65;;;;;;;0.20;72.86;99104.28;5030208;28;20029;-76
2024/01/17 10:58:35;;;;;;;12.27;7.05;;;;;;;0.23;72.34;99089.47;5029805;28;20022;-75
2024/01/17 11:01:04;;;;;;;14.40;8.27;;;;;;;0.12;71.92;99093.22;5027174;28;20040;-75
2024/01/17 11:03:33;;;;;;;11.43;7.10;;;;;;;0.08;71.40;99086.41;5016227;28;20029;-76
2024/01/17 11:05:59;;;;;;;12.23;7.28;;;;;;;0.12;72.14;99082.84;5031630;28;20021;-76
2024/01/17 11:08:25;;;;;;;13.68;7.05;;;;;;;0.15;70.67;99081.03;5037066;28;20036;-78
2024/01/17 11:10:52;;;;;;;12.80;7.55;;;;;;;0.13;71.03;99074.16;5027642;28;20030;-78
2024/01/17 11:13:19;;;;;;;15.45;7.93;;;;;;;0.05;70.68;99068.28;5014185;28;20486;-78
2024/01/17 11:15:45;;;;;;;18.77;7.97;;;;;;;0.04;71.62;99070.03;5028063;28;20029;-78
2024/01/17 11:18:12;;;;;;;11.88;7.63;;;;;;;0.03;71.20;99072.69;5035262;28;20225;-78